createdAt,value
2023-02-18T00:01:39.980Z,98403.20
2023-02-18T00:04:08.198Z,98398.40
2023-02-18T00:06:36.721Z,98392.80
2023-02-18T00:09:05.071Z,98401.80
2023-02-18T00:11:35.090Z,98411.60
2023-02-18T00:14:04.921Z,98408.80
2023-02-18T00:16:33.098Z,98423.60
2023-02-18T00:19:04.406Z,98418.80
2023-02-18T00:21:33.999Z,98431.60
2023-02-18T00:24:01.894Z,98435.80
2023-02-18T00:26:29.853Z,98436.00
2023-02-18T00:28:57.806Z,98445.20
2023-02-18T00:31:30.706Z,98459.60
2023-02-18T00:34:00.288Z,98463.60
2023-02-18T00:36:29.169Z,98454.20
2023-02-18T00:38:59.950Z,98460.60
2023-02-18T00:41:28.646Z,98452.80
2023-02-18T00:43:56.684Z,98436.60
2023-02-18T00:46:25.130Z,98441.20
2023-02-18T00:48:55.071Z,98456.60
2023-02-18T00:51:23.613Z,98457.40
2023-02-18T00:53:51.460Z,98439.20
2023-02-18T00:56:20.698Z,98454.60
2023-02-18T00:58:50.288Z,98460.20
2023-02-18T01:01:18.488Z,98461.20
2023-02-18T01:03:46.546Z,98460.20
2023-02-18T01:06:15.532Z,98467.40
2023-02-18T01:08:43.672Z,98471.80
2023-02-18T01:11:12.081Z,98476.80
2023-02-18T01:13:40.846Z,98478.20
2023-02-18T01:16:09.978Z,98485.20
2023-02-18T01:18:39.167Z,98484.60
2023-02-18T01:21:08.778Z,98475.60
2023-02-18T01:23:38.138Z,98473.80
2023-02-18T01:26:06.858Z,98479.40
2023-02-18T01:28:35.239Z,98491.00
2023-02-18T01:31:09.501Z,98495.80
2023-02-18T01:33:37.561Z,98503.40
2023-02-18T01:36:07.267Z,98488.40
2023-02-18T01:38:35.876Z,98488.60
2023-02-18T01:41:04.008Z,98499.80
2023-02-18T01:43:32.161Z,98502.40
2023-02-18T01:46:06.491Z,98486.60
2023-02-18T01:48:54.730Z,98492.60
2023-02-18T01:51:32.370Z,98488.00
2023-02-18T01:54:08.267Z,98496.40
2023-02-18T01:57:02.321Z,98510.40
2023-02-18T01:59:39.257Z,98504.00
2023-02-18T02:02:09.564Z,98500.00
2023-02-18T02:04:37.767Z,98525.00
2023-02-18T02:07:05.714Z,98517.20
2023-02-18T02:09:33.756Z,98504.60
2023-02-18T02:12:28.687Z,98508.80
2023-02-18T02:15:30.117Z,98526.80
2023-02-18T02:18:39.737Z,98528.00
2023-02-18T02:21:38.587Z,98512.00
2023-02-18T02:24:12.883Z,98517.80
2023-02-18T02:27:22.116Z,98544.00
2023-02-18T02:30:30.820Z,98537.00
2023-02-18T02:33:18.282Z,98547.40
2023-02-18T02:36:25.041Z,98553.20
2023-02-18T02:39:12.045Z,98534.80
2023-02-18T02:42:09.945Z,98551.60
2023-02-18T02:44:46.983Z,98549.20
2023-02-18T02:47:51.921Z,98542.60
2023-02-18T02:50:44.511Z,98531.60
2023-02-18T02:53:22.297Z,98529.00
2023-02-18T02:55:50.538Z,98540.40
2023-02-18T02:58:21.106Z,98548.40
2023-02-18T03:01:08.022Z,98548.00
2023-02-18T03:04:27.519Z,98553.80
2023-02-18T03:07:26.000Z,98560.40
2023-02-18T03:10:12.660Z,98556.00
2023-02-18T03:12:43.553Z,98564.40
2023-02-18T03:15:28.506Z,98567.60
2023-02-18T03:18:03.141Z,98576.00
2023-02-18T03:20:41.738Z,98576.20
2023-02-18T03:23:12.264Z,98595.60
2023-02-18T03:25:40.155Z,98581.40
2023-02-18T03:28:15.601Z,98599.80
2023-02-18T03:30:46.815Z,98599.80
2023-02-18T03:33:18.615Z,98610.80
2023-02-18T03:35:46.571Z,98598.20
2023-02-18T03:38:38.396Z,98611.00
2023-02-18T03:41:06.616Z,98614.60
2023-02-18T03:43:34.812Z,98615.60
2023-02-18T03:46:03.255Z,98619.80
2023-02-18T03:48:31.546Z,98610.00
2023-02-18T03:50:59.560Z,98607.60
2023-02-18T03:53:28.032Z,98623.80
2023-02-18T03:55:56.204Z,98620.00
2023-02-18T03:58:24.039Z,98616.40
2023-02-18T04:00:52.096Z,98613.00
2023-02-18T04:03:19.916Z,98619.20
2023-02-18T04:05:48.236Z,98630.80
2023-02-18T04:08:15.991Z,98632.40
2023-02-18T04:10:44.054Z,98617.00
2023-02-18T04:13:12.867Z,98629.80
2023-02-18T04:15:41.091Z,98631.20
2023-02-18T04:18:09.291Z,98639.00
2023-02-18T04:20:37.689Z,98649.40
2023-02-18T04:23:05.724Z,98654.20
2023-02-18T04:25:33.858Z,98669.80
2023-02-18T04:28:01.570Z,98674.00
2023-02-18T04:30:29.580Z,98680.40
2023-02-18T04:32:57.632Z,98678.20
2023-02-18T04:35:25.560Z,98684.00
2023-02-18T04:37:53.613Z,98677.20
2023-02-18T04:40:21.752Z,98683.60
2023-02-18T04:42:49.891Z,98682.40
2023-02-18T04:45:17.889Z,98682.80
2023-02-18T04:47:45.956Z,98679.60
2023-02-18T04:50:13.956Z,98682.00
2023-02-18T04:52:41.806Z,98689.80
2023-02-18T04:55:10.212Z,98684.40
2023-02-18T04:57:38.098Z,98686.40
2023-02-18T05:00:09.512Z,98689.60
2023-02-18T05:02:37.324Z,98688.60
2023-02-18T05:05:05.457Z,98682.80
2023-02-18T05:07:34.212Z,98676.80
2023-02-18T05:10:02.494Z,98673.80
2023-02-18T05:12:30.787Z,98671.20
2023-02-18T05:14:59.245Z,98681.80
2023-02-18T05:17:27.157Z,98686.00
2023-02-18T05:19:55.185Z,98674.80
2023-02-18T05:22:23.144Z,98679.40
2023-02-18T05:24:51.530Z,98683.60
2023-02-18T05:27:19.706Z,98688.20
2023-02-18T05:29:47.672Z,98681.80
2023-02-18T05:32:15.799Z,98679.20
2023-02-18T05:34:44.031Z,98684.20
2023-02-18T05:37:13.720Z,98674.80
2023-02-18T05:39:42.067Z,98680.00
2023-02-18T05:42:10.245Z,98691.00
2023-02-18T05:44:38.377Z,98691.40
2023-02-18T05:47:11.363Z,98694.20
2023-02-18T05:49:40.906Z,98689.00
2023-02-18T05:52:09.643Z,98684.60
2023-02-18T05:54:37.725Z,98688.80
2023-02-18T05:57:05.654Z,98703.20
2023-02-18T05:59:33.984Z,98683.40
2023-02-18T06:02:01.895Z,98684.60
2023-02-18T06:04:29.798Z,98683.20
2023-02-18T06:06:57.945Z,98690.60
2023-02-18T06:09:25.770Z,98691.00
2023-02-18T06:11:53.993Z,98688.40
2023-02-18T06:14:21.867Z,98686.60
2023-02-18T06:16:49.994Z,98691.40
2023-02-18T06:19:17.794Z,98695.20
2023-02-18T06:21:45.978Z,98698.80
2023-02-18T06:24:13.780Z,98709.60
2023-02-18T06:26:41.596Z,98720.20
2023-02-18T06:29:09.721Z,98730.40
2023-02-18T06:31:37.867Z,98735.00
2023-02-18T06:34:05.811Z,98727.00
2023-02-18T06:36:34.018Z,98736.00
2023-02-18T06:39:04.806Z,98750.80
2023-02-18T06:41:33.305Z,98743.00
2023-02-18T06:44:01.404Z,98742.00
2023-02-18T06:46:29.186Z,98736.80
2023-02-18T06:48:57.295Z,98734.60
2023-02-18T06:51:25.491Z,98736.40
2023-02-18T06:53:53.857Z,98756.80
2023-02-18T06:56:21.891Z,98760.80
2023-02-18T06:58:50.127Z,98762.40
2023-02-18T07:01:18.020Z,98744.20
2023-02-18T07:03:47.834Z,98743.40
2023-02-18T07:06:17.381Z,98752.60
2023-02-18T07:08:45.552Z,98750.80
2023-02-18T07:11:13.450Z,98755.60
2023-02-18T07:13:41.253Z,98743.60
2023-02-18T07:16:09.377Z,98753.60
2023-02-18T07:18:37.662Z,98750.80
2023-02-18T07:21:05.903Z,98744.20
2023-02-18T07:23:33.800Z,98741.00
2023-02-18T07:26:11.539Z,98753.80
2023-02-18T07:28:39.793Z,98750.20
2023-02-18T07:31:08.319Z,98756.60
2023-02-18T07:33:37.313Z,98767.40
2023-02-18T07:36:06.837Z,98772.20
2023-02-18T07:38:34.994Z,98777.40
2023-02-18T07:41:03.778Z,98778.20
2023-02-18T07:43:31.953Z,98788.20
2023-02-18T07:45:59.905Z,98779.20
2023-02-18T07:48:27.686Z,98792.00
2023-02-18T07:50:56.015Z,98774.20
2023-02-18T07:53:24.150Z,98778.40
2023-02-18T07:55:52.248Z,98787.40
2023-02-18T07:58:25.899Z,98774.00
2023-02-18T08:00:55.087Z,98778.00
2023-02-18T08:03:25.964Z,98772.40
2023-02-18T08:05:54.703Z,98773.00
2023-02-18T08:08:25.663Z,98776.40
2023-02-18T08:10:55.676Z,98788.00
2023-02-18T08:13:23.633Z,98775.20
2023-02-18T08:15:51.625Z,98774.60
2023-02-18T08:18:22.162Z,98779.20
2023-02-18T08:20:51.843Z,98783.80
2023-02-18T08:23:21.056Z,98779.60
2023-02-18T08:25:50.677Z,98778.80
2023-02-18T08:28:20.767Z,98782.20
2023-02-18T08:30:50.216Z,98778.40
2023-02-18T08:33:18.477Z,98777.00
2023-02-18T08:35:47.058Z,98775.60
2023-02-18T08:38:15.207Z,98779.80
2023-02-18T08:40:43.835Z,98788.60
2023-02-18T08:43:11.867Z,98788.40
2023-02-18T08:45:40.441Z,98774.80
2023-02-18T08:48:16.783Z,98782.60
2023-02-18T08:50:48.618Z,98778.80
2023-02-18T08:53:17.256Z,98788.60
2023-02-18T08:55:45.161Z,98793.80
2023-02-18T08:58:13.166Z,98780.00
2023-02-18T09:00:42.163Z,98786.40
2023-02-18T09:03:14.744Z,98787.80
2023-02-18T09:05:42.755Z,98797.80
2023-02-18T09:08:10.782Z,98787.60
2023-02-18T09:10:39.932Z,98794.20
2023-02-18T09:13:07.773Z,98793.60
2023-02-18T09:15:36.039Z,98794.40
2023-02-18T09:18:04.243Z,98806.20
2023-02-18T09:20:32.311Z,98803.60
2023-02-18T09:23:01.886Z,98806.00
2023-02-18T09:25:29.882Z,98795.20
2023-02-18T09:27:57.832Z,98785.00
2023-02-18T09:30:25.866Z,98792.00
2023-02-18T09:32:54.010Z,98796.40
2023-02-18T09:35:21.813Z,98786.20
2023-02-18T09:37:49.579Z,98789.60
2023-02-18T09:40:32.985Z,98784.80
2023-02-18T09:43:01.061Z,98782.40
2023-02-18T09:45:29.102Z,98803.40
2023-02-18T09:47:56.986Z,98789.80
2023-02-18T09:50:33.504Z,98798.80
2023-02-18T09:53:03.629Z,98791.80
2023-02-18T09:55:36.422Z,98783.60
2023-02-18T09:58:29.794Z,98800.60
2023-02-18T10:01:16.075Z,98794.60
2023-02-18T10:03:44.488Z,98789.40
2023-02-18T10:06:22.768Z,98791.60
2023-02-18T10:08:52.463Z,98798.20
2023-02-18T10:11:38.393Z,98792.00
2023-02-18T10:14:11.240Z,98784.00
2023-02-18T10:16:39.376Z,98783.60
2023-02-18T10:19:26.334Z,98783.40
2023-02-18T10:21:54.595Z,98776.80
2023-02-18T10:24:30.161Z,98776.20
2023-02-18T10:26:58.642Z,98778.20
2023-02-18T10:29:27.244Z,98784.20
2023-02-18T10:32:19.167Z,98782.60
2023-02-18T10:35:02.636Z,98789.40
2023-02-18T10:38:11.992Z,98775.80
2023-02-18T10:41:10.489Z,98767.20
2023-02-18T10:43:46.998Z,98757.20
2023-02-18T10:46:37.970Z,98752.60
2023-02-18T10:49:50.691Z,98748.00
2023-02-18T10:52:21.143Z,98736.00
2023-02-18T10:55:00.348Z,98732.40
2023-02-18T10:57:29.262Z,98723.40
2023-02-18T11:00:01.871Z,98730.40
2023-02-18T11:02:32.672Z,98721.60
2023-02-18T11:05:02.195Z,98728.00
2023-02-18T11:07:33.888Z,98723.00
2023-02-18T11:10:14.636Z,98728.00
2023-02-18T11:12:57.890Z,98725.00
2023-02-18T11:15:26.968Z,98722.80
2023-02-18T11:17:57.347Z,98697.60
2023-02-18T11:20:33.733Z,98695.80
2023-02-18T11:23:07.608Z,98683.80
2023-02-18T11:25:37.916Z,98689.60
2023-02-18T11:28:18.108Z,98685.80
2023-02-18T11:30:48.831Z,98674.40
2023-02-18T11:33:21.747Z,98678.00
2023-02-18T11:35:54.871Z,98667.60
2023-02-18T11:38:37.170Z,98668.00
2023-02-18T11:41:11.989Z,98658.20
2023-02-18T11:43:46.678Z,98662.40
2023-02-18T11:46:21.159Z,98654.80
2023-02-18T11:48:50.047Z,98651.40
2023-02-18T11:51:39.240Z,98645.20
2023-02-18T11:54:30.431Z,98639.40
2023-02-18T11:57:12.031Z,98621.60
2023-02-18T11:59:40.943Z,98616.00
2023-02-18T12:02:12.134Z,98614.00
2023-02-18T12:04:51.283Z,98607.60
2023-02-18T12:07:43.927Z,98604.20
2023-02-18T12:10:19.829Z,98604.00
2023-02-18T12:13:11.612Z,98600.60
2023-02-18T12:16:12.154Z,98598.40
2023-02-18T12:18:43.692Z,98593.00
2023-02-18T12:21:36.239Z,98577.40
2023-02-18T12:24:13.337Z,98583.00
2023-02-18T12:26:56.716Z,98578.00
2023-02-18T12:30:03.254Z,98579.80
2023-02-18T12:33:04.972Z,98579.60
2023-02-18T12:35:46.033Z,98579.80
2023-02-18T12:38:52.121Z,98569.00
2023-02-18T12:41:33.918Z,98555.20
2023-02-18T12:44:17.733Z,98558.40
2023-02-18T12:46:56.583Z,98553.60
2023-02-18T12:49:33.142Z,98544.40
2023-02-18T12:52:42.463Z,98546.00
2023-02-18T12:55:42.407Z,98537.40
2023-02-18T12:58:32.620Z,98528.20
2023-02-18T13:01:22.385Z,98526.00
2023-02-18T13:04:02.055Z,98528.20
2023-02-18T13:06:39.827Z,98520.00
2023-02-18T13:09:33.826Z,98523.40
2023-02-18T13:12:15.095Z,98520.60
2023-02-18T13:15:00.906Z,98510.80
2023-02-18T13:17:33.291Z,98492.40
2023-02-18T13:20:35.505Z,98493.60
2023-02-18T13:23:03.555Z,98505.20
2023-02-18T13:25:38.201Z,98518.20
2023-02-18T13:28:38.528Z,98518.20
2023-02-18T13:31:28.573Z,98512.40
2023-02-18T13:34:12.743Z,98501.40
2023-02-18T13:36:54.120Z,98499.80
2023-02-18T13:39:23.657Z,98499.20
2023-02-18T13:41:52.788Z,98500.80
2023-02-18T13:44:23.402Z,98488.40
2023-02-18T13:46:56.685Z,98493.00
2023-02-18T13:49:33.454Z,98484.60
2023-02-18T13:52:02.413Z,98488.20
2023-02-18T13:54:46.376Z,98483.00
2023-02-18T13:57:22.219Z,98488.80
2023-02-18T13:59:56.566Z,98487.20
2023-02-18T14:02:27.378Z,98489.40
2023-02-18T14:04:57.632Z,98492.60
2023-02-18T14:07:41.695Z,98476.60
2023-02-18T14:10:18.537Z,98480.00
2023-02-18T14:12:51.905Z,98480.60
2023-02-18T14:15:20.094Z,98479.40
2023-02-18T14:18:13.638Z,98470.20
2023-02-18T14:20:46.914Z,98473.40
2023-02-18T14:23:21.177Z,98466.40
2023-02-18T14:26:09.451Z,98466.40
2023-02-18T14:28:47.412Z,98462.80
2023-02-18T14:31:22.203Z,98459.20
2023-02-18T14:34:31.986Z,98453.80
2023-02-18T14:37:22.208Z,98446.20
2023-02-18T14:40:06.613Z,98444.40
2023-02-18T14:43:01.759Z,98446.00
2023-02-18T14:45:47.515Z,98441.60
2023-02-18T14:48:57.805Z,98434.80
2023-02-18T14:51:26.485Z,98426.80
2023-02-18T14:53:54.443Z,98427.40
2023-02-18T14:56:22.445Z,98430.40
2023-02-18T14:58:54.319Z,98424.40
2023-02-18T15:01:29.818Z,98419.60
2023-02-18T15:03:58.138Z,98417.40
2023-02-18T15:06:31.885Z,98423.60
2023-02-18T15:09:01.572Z,98416.40
2023-02-18T15:11:42.378Z,98419.60
2023-02-18T15:14:42.681Z,98421.40
2023-02-18T15:17:15.721Z,98412.00
2023-02-18T15:19:53.029Z,98404.00
2023-02-18T15:22:27.002Z,98402.00
2023-02-18T15:24:55.460Z,98388.80
2023-02-18T15:27:30.992Z,98386.20
2023-02-18T15:30:13.544Z,98379.40
2023-02-18T15:32:52.085Z,98380.60
2023-02-18T15:35:23.100Z,98370.40
2023-02-18T15:37:55.946Z,98365.80
2023-02-18T15:40:27.822Z,98363.80
2023-02-18T15:42:59.083Z,98362.80
2023-02-18T15:45:39.151Z,98364.60
2023-02-18T15:48:07.302Z,98371.00
2023-02-18T15:50:39.003Z,98374.00
2023-02-18T15:53:16.396Z,98375.40
2023-02-18T15:55:47.945Z,98376.80
2023-02-18T15:58:26.754Z,98381.60
2023-02-18T16:01:00.606Z,98379.60
2023-02-18T16:03:41.539Z,98366.60
2023-02-18T16:06:23.337Z,98367.60
2023-02-18T16:09:06.808Z,98364.20
2023-02-18T16:11:39.365Z,98360.20
2023-02-18T16:14:07.553Z,98359.80
2023-02-18T16:16:37.441Z,98355.60
2023-02-18T16:19:05.503Z,98347.60
2023-02-18T16:21:40.808Z,98346.60
2023-02-18T16:24:26.867Z,98343.40
2023-02-18T16:26:58.567Z,98341.80
2023-02-18T16:29:40.841Z,98345.20
2023-02-18T16:32:08.970Z,98333.20
2023-02-18T16:34:38.182Z,98328.60
2023-02-18T16:37:24.817Z,98327.20
2023-02-18T16:39:55.128Z,98328.00
2023-02-18T16:42:23.123Z,98327.60
2023-02-18T16:44:52.021Z,98322.60
2023-02-18T16:47:20.219Z,98322.20
2023-02-18T16:49:49.886Z,98318.60
2023-02-18T16:52:19.309Z,98315.80
2023-02-18T16:54:50.434Z,98315.80
2023-02-18T16:57:18.581Z,98311.00
2023-02-18T16:59:46.669Z,98309.20
2023-02-18T17:02:21.169Z,98315.20
2023-02-18T17:04:49.050Z,98313.40
2023-02-18T17:07:17.060Z,98314.00
2023-02-18T17:09:45.097Z,98308.60
2023-02-18T17:12:14.073Z,98300.20
2023-02-18T17:14:43.843Z,98301.60
2023-02-18T17:17:12.580Z,98294.40
2023-02-18T17:19:40.495Z,98292.20
2023-02-18T17:22:10.370Z,98286.20
2023-02-18T17:24:38.332Z,98281.20
2023-02-18T17:27:06.464Z,98278.20
2023-02-18T17:29:34.380Z,98278.40
2023-02-18T17:32:02.768Z,98281.40
2023-02-18T17:34:32.595Z,98271.20
2023-02-18T17:37:00.641Z,98271.80
2023-02-18T17:39:29.759Z,98280.80
2023-02-18T17:41:57.658Z,98277.00
2023-02-18T17:44:26.207Z,98281.40
2023-02-18T17:46:55.020Z,98275.20
2023-02-18T17:49:23.353Z,98268.00
2023-02-18T17:51:52.655Z,98282.00
2023-02-18T17:54:22.873Z,98290.60
2023-02-18T17:56:50.785Z,98297.40
2023-02-18T17:59:18.804Z,98299.80
2023-02-18T18:01:46.968Z,98308.60
2023-02-18T18:04:16.978Z,98315.00
2023-02-18T18:06:47.009Z,98316.00
2023-02-18T18:09:15.172Z,98327.60
2023-02-18T18:11:43.348Z,98322.60
2023-02-18T18:14:13.814Z,98331.20
2023-02-18T18:16:41.765Z,98334.00
2023-02-18T18:19:10.186Z,98332.00
2023-02-18T18:21:38.205Z,98335.20
2023-02-18T18:24:06.667Z,98326.60
2023-02-18T18:26:34.733Z,98324.00
2023-02-18T18:29:02.707Z,98324.40
2023-02-18T18:31:32.447Z,98322.40
2023-02-18T18:34:00.399Z,98314.80
2023-02-18T18:36:28.258Z,98327.20
2023-02-18T18:38:56.199Z,98326.00
2023-02-18T18:41:24.344Z,98327.60
2023-02-18T18:43:52.166Z,98329.40
2023-02-18T18:46:20.245Z,98335.60
2023-02-18T18:52:14.506Z,98344.00
2023-02-18T18:54:45.590Z,98346.40
2023-02-18T18:57:15.325Z,98344.20
2023-02-18T18:59:43.139Z,98346.40
2023-02-18T19:02:15.985Z,98351.20
2023-02-18T19:04:44.036Z,98360.40
2023-02-18T19:07:12.074Z,98357.60
2023-02-18T19:09:40.304Z,98369.80
2023-02-18T19:12:10.499Z,98365.40
2023-02-18T19:14:38.538Z,98371.80
2023-02-18T19:17:06.858Z,98377.20
2023-02-18T19:19:35.316Z,98379.00
2023-02-18T19:22:03.368Z,98379.40
2023-02-18T19:24:31.439Z,98383.00
2023-02-18T19:26:59.499Z,98395.60
2023-02-18T19:29:27.425Z,98407.60
2023-02-18T19:31:55.474Z,98422.60
2023-02-18T19:34:23.222Z,98426.40
2023-02-18T19:36:51.116Z,98423.60
2023-02-18T19:39:19.163Z,98426.00
2023-02-18T19:41:47.085Z,98411.00
2023-02-18T19:44:15.015Z,98409.40
2023-02-18T19:46:42.985Z,98425.00
2023-02-18T19:49:11.016Z,98419.80
2023-02-18T19:51:38.844Z,98418.40
2023-02-18T19:54:07.065Z,98438.20
2023-02-18T19:56:35.086Z,98449.00
2023-02-18T19:59:03.133Z,98463.60
2023-02-18T20:01:31.408Z,98471.00
2023-02-18T20:04:00.307Z,98480.20
2023-02-18T20:06:28.268Z,98489.60
2023-02-18T20:08:56.304Z,98491.60
2023-02-18T20:11:24.245Z,98488.40
2023-02-18T20:13:52.145Z,98481.00
2023-02-18T20:16:20.230Z,98473.00
2023-02-18T20:18:48.228Z,98476.40
2023-02-18T20:21:16.089Z,98480.20
2023-02-18T20:23:44.302Z,98493.40
2023-02-18T20:26:12.877Z,98505.40
2023-02-18T20:28:41.195Z,98510.00
2023-02-18T20:31:11.868Z,98521.40
2023-02-18T20:33:40.256Z,98518.00
2023-02-18T20:36:09.037Z,98523.40
2023-02-18T20:38:37.523Z,98534.80
2023-02-18T20:41:11.597Z,98535.20
2023-02-18T20:43:40.951Z,98542.40
2023-02-18T20:46:12.514Z,98545.60
2023-02-18T20:48:40.451Z,98559.80
2023-02-18T20:51:20.100Z,98565.80
2023-02-18T20:53:48.338Z,98564.80
2023-02-18T20:56:16.252Z,98570.20
2023-02-18T20:58:44.378Z,98572.40
2023-02-18T21:01:14.336Z,98568.60
2023-02-18T21:03:43.255Z,98575.80
2023-02-18T21:06:14.004Z,98591.60
2023-02-18T21:08:43.102Z,98597.40
2023-02-18T21:11:17.636Z,98607.40
2023-02-18T21:13:47.420Z,98606.20
2023-02-18T21:16:15.912Z,98602.00
2023-02-18T21:18:43.964Z,98611.80
2023-02-18T21:21:12.569Z,98613.40
2023-02-18T21:23:41.179Z,98615.40
2023-02-18T21:26:15.076Z,98615.40
2023-02-18T21:28:46.212Z,98612.40
2023-02-18T21:31:25.899Z,98608.80
2023-02-18T21:33:54.254Z,98608.40
2023-02-18T21:36:22.395Z,98614.80
2023-02-18T21:38:59.449Z,98628.60
2023-02-18T21:41:27.936Z,98640.60
2023-02-18T21:43:55.801Z,98643.20
2023-02-18T21:46:30.091Z,98646.40
2023-02-18T21:49:09.968Z,98658.60
2023-02-18T21:52:02.002Z,98659.60
2023-02-18T21:54:46.484Z,98658.40
2023-02-18T21:57:19.839Z,98654.60
2023-02-18T21:59:48.374Z,98654.40
2023-02-18T22:02:35.095Z,98653.20
2023-02-18T22:05:03.245Z,98663.00
2023-02-18T22:07:31.385Z,98666.00
2023-02-18T22:09:59.522Z,98671.00
2023-02-18T22:12:27.435Z,98677.00
2023-02-18T22:14:55.337Z,98677.00
2023-02-18T22:17:23.204Z,98678.40
2023-02-18T22:19:51.038Z,98675.00
2023-02-18T22:22:19.085Z,98674.20
2023-02-18T22:24:47.124Z,98681.00
2023-02-18T22:27:15.445Z,98687.20
2023-02-18T22:29:43.615Z,98676.40
2023-02-18T22:32:11.442Z,98673.60
2023-02-18T22:34:40.256Z,98688.40
2023-02-18T22:37:08.272Z,98691.80
2023-02-18T22:39:36.207Z,98688.20
2023-02-18T22:42:04.891Z,98694.60
2023-02-18T22:44:32.809Z,98701.80
2023-02-18T22:47:00.731Z,98712.20
2023-02-18T22:49:28.763Z,98713.60
2023-02-18T22:51:56.705Z,98721.60
2023-02-18T22:54:24.834Z,98727.00
2023-02-18T22:56:53.355Z,98726.40
2023-02-18T22:59:21.257Z,98729.40
2023-02-18T23:01:49.826Z,98728.40
2023-02-18T23:04:19.929Z,98736.00
2023-02-18T23:06:48.619Z,98739.00
2023-02-18T23:09:24.540Z,98743.20
2023-02-18T23:11:54.312Z,98745.80
2023-02-18T23:14:22.586Z,98753.00
2023-02-18T23:17:12.387Z,98748.40
2023-02-18T23:19:51.227Z,98745.80
2023-02-18T23:22:33.234Z,98746.00
2023-02-18T23:25:01.369Z,98745.00
2023-02-18T23:27:29.600Z,98744.40
2023-02-18T23:29:57.585Z,98751.40
2023-02-18T23:32:27.864Z,98746.80
2023-02-18T23:34:55.745Z,98753.60
2023-02-18T23:37:44.108Z,98754.80
2023-02-18T23:40:13.994Z,98754.40
2023-02-18T23:42:42.040Z,98757.80
2023-02-18T23:45:10.007Z,98765.20
2023-02-18T23:47:37.900Z,98760.20
2023-02-18T23:50:06.899Z,98761.60
2023-02-18T23:52:34.702Z,98754.20
2023-02-18T23:55:02.734Z,98760.20
2023-02-18T23:57:33.743Z,98756.60
